La Gomera > ESTACION METEOROLÓGICA Vallehermoso

DATOS ACTUALES Online

Ultima actulizacion 28 minutos

20.7 ºC

Temperatura

51

Humedad (%)

1016.81

Presión (mb)

0

Precipitación (mm)

32.1 N

Viento (Km/h)

DATOS DIARIOS

Temperatura últimas 24 horas (ºC)

Humedad últimas 24 horas (%)

Presión atmosférica últimas 24 horas (mb)

Precipitaciones últimas 23 horas (mm)

Viento últimas 24 horas (Km/h)

Hora Temperatura (°C) ºC Precipitación (mm) mm Presión (mb) mb Humedad (%) % Viento (Km/h) km/h
19 - 10:00 19.4 0 1018 61 20.2 NO
19 - 11:00 20.1 0 1017 62 25.8 NO
19 - 12:00 20.2 0 1017 62 20.1 NO
19 - 13:00 20.3 0 1016 63 25.9 NO
19 - 14:00 20.5 0 1015 61 24 NO
19 - 15:00 20.9 0 1015 60 23.7 NO
19 - 16:00 20.9 0 1015 59 18.4 O
19 - 17:00 20.6 0 1015 63 15.9 O
19 - 18:00 20.1 0 1016 59 4.3 S
19 - 19:00 18.2 0 1016 65 12.4 SW
19 - 20:00 17.6 0 1017 62 14.5 SW
19 - 21:00 17.1 0 1017 63 21.9 SW
19 - 22:00 17.5 0 1018 59 17.5 SW
19 - 23:00 17.1 0 1018 60 15.2 W
20 - 00:00 16.9 0 1018 53 17.5 SW
20 - 01:00 16.6 0 1017 51 16.3 W
20 - 02:00 17.4 0 1016 51 12.2 SW
20 - 03:00 20.1 0 1016 47 23.1 SW
20 - 04:00 20.4 0 1016 51 20.2 N
20 - 05:00 18.1 0 1015 56 11.4 SW
20 - 06:00 20.4 0 1015 45 18.5 SW
20 - 07:00 20.4 0 1016 45 28.1 SW
20 - 08:00 20.5 0 1016 50 29.2 NW
20 - 09:00 20.7 0 1017 51 32.1 N
20 - 10:00
Apalmet utiliza cookies propias y de terceros para mejorar la usabilidad y la experiencia web. Política de cookies.